Leni P. — A8XW5 — position and weather

sailwx.info

Track history (hours):
 
Tides and Currents Weather Stations Pressure Air Temp Water Temp Dewpoint Dewpoint Depression Visibility Wind Speed Wind Dir Waves Ship Positions

Leni P.

Last reported at 2014-Sep-23 00:33 UTC. Time now 2014-Sep-23 10:17 UTC.
Position N 31°10' E 029°32'.

Length 274 m; draft 8.9 m.

Type: Ship (hazmat cat A). MMSI: 636014986.

Date/timePositionNaut miles runAvg speedWind from/ knotsBaromVisibWave heightAir tempDewpointWater temp
2014-Sep-23 00:33N 31°10' E 029°32'26 8.6
2014-Sep-22 21:33N 31°19' E 029°04'  
2014-Sep-20 17:18N 35°29' E 016°45'1012.3
2014-Sep-20 16:30N 35°32' E 016°34'2412.1
2014-Sep-20 14:33N 35°41' E 016°07'1212.2
2014-Sep-20 13:33N 35°46' E 015°53'1212.1
2014-Sep-20 12:33N 35°50' E 015°39'1211.7
2014-Sep-20 11:33N 35°55' E 015°26'1211.9
2014-Sep-20 10:33N 35°59' E 015°12'1211.8
2014-Sep-20 09:33N 36°03' E 014°58'1211.9
2014-Sep-20 08:33N 36°07' E 014°44'1212.3
2014-Sep-20 07:33N 36°12' E 014°30'1312.7
2014-Sep-20 06:32N 36°17' E 014°15'1512.0
2014-Sep-20 05:17N 36°22' E 013°58'911.9
2014-Sep-20 04:33N 36°26' E 013°48'1411.8
2014-Sep-20 03:24N 36°31' E 013°32'1011.5
2014-Sep-20 02:33N 36°34' E 013°21'1211.5
2014-Sep-20 01:29N 36°39' E 013°07'1111.7
2014-Sep-20 00:33N 36°43' E 012°54'2311.3
2014-Sep-19 22:33N 36°51' E 012°28'1111.4
2014-Sep-19 21:33N 36°55' E 012°15'1111.1
2014-Sep-19 20:33N 36°59' E 012°02'1310.8
2014-Sep-19 19:24N 37°05' E 011°48'4611.0
2014-Sep-19 15:14N 37°27' E 010°57'811.5
2014-Sep-19 14:33N 37°28' E 010°48'1211.5
2014-Sep-19 13:33N 37°30' E 010°33'1211.6
2014-Sep-19 12:33N 37°33' E 010°19'1212.1
2014-Sep-19 11:33N 37°34' E 010°04'1212.2
2014-Sep-19 10:33N 37°37' E 009°49'1312.6
2014-Sep-19 09:33N 37°41' E 009°34'1312.7
2014-Sep-19 08:33N 37°45' E 009°18'1313.1
2014-Sep-19 07:33N 37°49' E 009°03'1313.3
2014-Sep-19 06:33N 37°51' E 008°46'1313.0
2014-Sep-19 05:33N 37°50' E 008°30'1312.9
2014-Sep-19 04:33N 37°49' E 008°13'1312.8
2014-Sep-19 03:33N 37°47' E 007°57'16512.3
2014-Sep-18 14:09N 37°29' E 004°30'3512.9
2014-Sep-18 11:26N 37°25' E 003°46'44113.0
2014-Sep-17 01:28N 35°60' W 005°13'1414.5
2014-Sep-17 00:29N 35°57' W 005°31'  
2014-Sep-14 01:29N 36°45' W 007°03'4010.1
2014-Sep-13 21:33N 36°11' W 006°37'1111.5
2014-Sep-13 20:33N 36°04' W 006°26'1410.3
2014-Sep-13 19:10N 35°58' W 006°10'710.4
2014-Sep-13 18:30N 35°57' W 006°01'1010.2
2014-Sep-13 17:33N 35°58' W 005°50'2110.0
2014-Sep-13 15:27N 36°02' W 005°24'  
Track history (hours):
 
Tides and Currents Weather Stations Pressure Air Temp Water Temp Dewpoint Dewpoint Depression Visibility Wind Speed Wind Dir Waves Ship Positions

Leni P.

Last reported at 2014-Sep-23 00:33 UTC. Time now 2014-Sep-23 10:17 UTC.
Position N 31°10' E 029°32'.

Length 274 m; draft 8.9 m.

Type: Ship (hazmat cat A). MMSI: 636014986.

Date/timePositionNaut miles runAvg speedWind from/ knotsBaromVisibWave heightAir tempDewpointWater temp
2014-Sep-23 00:33N 31°10' E 029°32'26 8.6
2014-Sep-22 21:33N 31°19' E 029°04'  
2014-Sep-20 17:18N 35°29' E 016°45'1012.3
2014-Sep-20 16:30N 35°32' E 016°34'2412.1
2014-Sep-20 14:33N 35°41' E 016°07'1212.2
2014-Sep-20 13:33N 35°46' E 015°53'1212.1
2014-Sep-20 12:33N 35°50' E 015°39'1211.7
2014-Sep-20 11:33N 35°55' E 015°26'1211.9
2014-Sep-20 10:33N 35°59' E 015°12'1211.8
2014-Sep-20 09:33N 36°03' E 014°58'1211.9
2014-Sep-20 08:33N 36°07' E 014°44'1212.3
2014-Sep-20 07:33N 36°12' E 014°30'1312.7
2014-Sep-20 06:32N 36°17' E 014°15'1512.0
2014-Sep-20 05:17N 36°22' E 013°58'911.9
2014-Sep-20 04:33N 36°26' E 013°48'1411.8
2014-Sep-20 03:24N 36°31' E 013°32'1011.5
2014-Sep-20 02:33N 36°34' E 013°21'1211.5
2014-Sep-20 01:29N 36°39' E 013°07'1111.7
2014-Sep-20 00:33N 36°43' E 012°54'2311.3
2014-Sep-19 22:33N 36°51' E 012°28'1111.4
2014-Sep-19 21:33N 36°55' E 012°15'1111.1
2014-Sep-19 20:33N 36°59' E 012°02'1310.8
2014-Sep-19 19:24N 37°05' E 011°48'4611.0
2014-Sep-19 15:14N 37°27' E 010°57'811.5
2014-Sep-19 14:33N 37°28' E 010°48'1211.5
2014-Sep-19 13:33N 37°30' E 010°33'1211.6
2014-Sep-19 12:33N 37°33' E 010°19'1212.1
2014-Sep-19 11:33N 37°34' E 010°04'1212.2
2014-Sep-19 10:33N 37°37' E 009°49'1312.6
2014-Sep-19 09:33N 37°41' E 009°34'1312.7
2014-Sep-19 08:33N 37°45' E 009°18'1313.1
2014-Sep-19 07:33N 37°49' E 009°03'1313.3
2014-Sep-19 06:33N 37°51' E 008°46'1313.0
2014-Sep-19 05:33N 37°50' E 008°30'1312.9
2014-Sep-19 04:33N 37°49' E 008°13'1312.8
2014-Sep-19 03:33N 37°47' E 007°57'16512.3
2014-Sep-18 14:09N 37°29' E 004°30'3512.9
2014-Sep-18 11:26N 37°25' E 003°46'44113.0
2014-Sep-17 01:28N 35°60' W 005°13'1414.5
2014-Sep-17 00:29N 35°57' W 005°31'  
2014-Sep-14 01:29N 36°45' W 007°03'4010.1
2014-Sep-13 21:33N 36°11' W 006°37'1111.5
2014-Sep-13 20:33N 36°04' W 006°26'1410.3
2014-Sep-13 19:10N 35°58' W 006°10'710.4
2014-Sep-13 18:30N 35°57' W 006°01'1010.2
2014-Sep-13 17:33N 35°58' W 005°50'2110.0
2014-Sep-13 15:27N 36°02' W 005°24'  

Dump ship's entire track history